sensor_id;sensor_type;location;lat;lon;timestamp;P1;durP1;ratioP1;P2;durP2;ratioP2
29006;SDS011;16104;48.642;9.008;2022-08-19T01:03:59;14.23;;;12.60;;
29006;SDS011;16104;48.642;9.008;2022-08-19T01:08:54;16.73;;;12.82;;
29006;SDS011;16104;48.642;9.008;2022-08-19T01:13:50;17.90;;;13.70;;
29006;SDS011;16104;48.642;9.008;2022-08-19T02:05:11;17.77;;;14.95;;
29006;SDS011;16104;48.642;9.008;2022-08-19T02:10:09;15.10;;;12.73;;
29006;SDS011;16104;48.642;9.008;2022-08-19T02:15:08;17.45;;;14.25;;
29006;SDS011;16104;48.642;9.008;2022-08-19T03:00:49;19.80;;;16.20;;
29006;SDS011;16104;48.642;9.008;2022-08-19T03:05:46;18.88;;;16.48;;
29006;SDS011;16104;48.642;9.008;2022-08-19T03:10:43;19.40;;;16.15;;
29006;SDS011;16104;48.642;9.008;2022-08-19T03:15:45;20.33;;;16.50;;
29006;SDS011;16104;48.642;9.008;2022-08-19T03:20:46;19.63;;;16.45;;
29006;SDS011;16104;48.642;9.008;2022-08-19T03:25:46;18.55;;;15.70;;
29006;SDS011;16104;48.642;9.008;2022-08-19T03:30:53;21.23;;;16.42;;
29006;SDS011;16104;48.642;9.008;2022-08-19T03:36:01;23.23;;;16.95;;
29006;SDS011;16104;48.642;9.008;2022-08-19T03:41:06;18.33;;;16.25;;
29006;SDS011;16104;48.642;9.008;2022-08-19T03:46:08;22.50;;;18.35;;
29006;SDS011;16104;48.642;9.008;2022-08-19T03:51:15;20.23;;;17.65;;
29006;SDS011;16104;48.642;9.008;2022-08-19T03:56:16;23.02;;;18.60;;
29006;SDS011;16104;48.642;9.008;2022-08-19T04:01:12;24.73;;;19.08;;
29006;SDS011;16104;48.642;9.008;2022-08-19T04:06:15;21.55;;;18.33;;
29006;SDS011;16104;48.642;9.008;2022-08-19T04:11:22;23.85;;;19.35;;
29006;SDS011;16104;48.642;9.008;2022-08-19T04:16:23;23.13;;;19.00;;
29006;SDS011;16104;48.642;9.008;2022-08-19T04:21:21;22.10;;;19.00;;
29006;SDS011;16104;48.642;9.008;2022-08-19T04:26:20;26.33;;;20.70;;
29006;SDS011;16104;48.642;9.008;2022-08-19T04:31:22;22.02;;;18.90;;
29006;SDS011;16104;48.642;9.008;2022-08-19T04:36:23;22.92;;;19.88;;
29006;SDS011;16104;48.642;9.008;2022-08-19T04:41:20;22.05;;;19.30;;
29006;SDS011;16104;48.642;9.008;2022-08-19T04:46:34;29.42;;;20.38;;
29006;SDS011;16104;48.642;9.008;2022-08-19T04:51:31;28.38;;;21.08;;
29006;SDS011;16104;48.642;9.008;2022-08-19T04:56:28;25.02;;;19.70;;
29006;SDS011;16104;48.642;9.008;2022-08-19T05:01:25;23.00;;;19.60;;
29006;SDS011;16104;48.642;9.008;2022-08-19T05:06:23;23.15;;;19.15;;
29006;SDS011;16104;48.642;9.008;2022-08-19T05:11:26;24.15;;;19.70;;
29006;SDS011;16104;48.642;9.008;2022-08-19T05:16:24;26.45;;;21.05;;
29006;SDS011;16104;48.642;9.008;2022-08-19T05:21:21;25.73;;;20.63;;
29006;SDS011;16104;48.642;9.008;2022-08-19T05:26:36;25.83;;;20.45;;
29006;SDS011;16104;48.642;9.008;2022-08-19T05:31:36;26.25;;;20.10;;
29006;SDS011;16104;48.642;9.008;2022-08-19T05:36:34;25.20;;;20.50;;
29006;SDS011;16104;48.642;9.008;2022-08-19T05:41:36;25.52;;;20.70;;
29006;SDS011;16104;48.642;9.008;2022-08-19T05:46:36;26.70;;;20.95;;
29006;SDS011;16104;48.642;9.008;2022-08-19T05:51:33;26.42;;;19.67;;
29006;SDS011;16104;48.642;9.008;2022-08-19T05:56:31;24.55;;;19.60;;
29006;SDS011;16104;48.642;9.008;2022-08-19T06:01:27;26.77;;;20.10;;
29006;SDS011;16104;48.642;9.008;2022-08-19T06:06:22;24.83;;;18.83;;
29006;SDS011;16104;48.642;9.008;2022-08-19T06:11:23;25.10;;;20.35;;
29006;SDS011;16104;48.642;9.008;2022-08-19T06:16:27;25.50;;;20.67;;
29006;SDS011;16104;48.642;9.008;2022-08-19T06:21:24;31.88;;;20.05;;
29006;SDS011;16104;48.642;9.008;2022-08-19T06:26:22;30.15;;;22.70;;
29006;SDS011;16104;48.642;9.008;2022-08-19T06:31:22;26.88;;;21.05;;
29006;SDS011;16104;48.642;9.008;2022-08-19T06:36:21;27.48;;;20.42;;
29006;SDS011;16104;48.642;9.008;2022-08-19T06:41:29;23.83;;;20.00;;
29006;SDS011;16104;48.642;9.008;2022-08-19T06:46:25;27.80;;;20.60;;
29006;SDS011;16104;48.642;9.008;2022-08-19T06:51:21;27.35;;;19.65;;
29006;SDS011;16104;48.642;9.008;2022-08-19T06:56:20;24.05;;;19.65;;
29006;SDS011;16104;48.642;9.008;2022-08-19T07:01:28;21.75;;;18.95;;
29006;SDS011;16104;48.642;9.008;2022-08-19T07:06:23;24.30;;;19.63;;
29006;SDS011;16104;48.642;9.008;2022-08-19T07:11:19;25.85;;;19.13;;
29006;SDS011;16104;48.642;9.008;2022-08-19T07:16:17;21.80;;;17.90;;
29006;SDS011;16104;48.642;9.008;2022-08-19T07:26:18;20.67;;;17.42;;
29006;SDS011;16104;48.642;9.008;2022-08-19T07:31:17;20.45;;;17.83;;
29006;SDS011;16104;48.642;9.008;2022-08-19T07:36:16;19.10;;;16.42;;
29006;SDS011;16104;48.642;9.008;2022-08-19T07:41:15;21.23;;;18.30;;
29006;SDS011;16104;48.642;9.008;2022-08-19T07:46:14;22.48;;;17.52;;
29006;SDS011;16104;48.642;9.008;2022-08-19T07:51:13;19.33;;;17.15;;
29006;SDS011;16104;48.642;9.008;2022-08-19T07:56:11;20.08;;;17.45;;
29006;SDS011;16104;48.642;9.008;2022-08-19T08:01:08;19.60;;;15.50;;
29006;SDS011;16104;48.642;9.008;2022-08-19T08:06:10;24.08;;;16.77;;
29006;SDS011;16104;48.642;9.008;2022-08-19T08:11:25;20.58;;;15.63;;
29006;SDS011;16104;48.642;9.008;2022-08-19T08:16:21;19.17;;;16.20;;
29006;SDS011;16104;48.642;9.008;2022-08-19T08:21:16;18.90;;;16.55;;
29006;SDS011;16104;48.642;9.008;2022-08-19T08:26:12;18.40;;;16.27;;
29006;SDS011;16104;48.642;9.008;2022-08-19T08:31:09;19.60;;;17.27;;
29006;SDS011;16104;48.642;9.008;2022-08-19T08:36:05;19.30;;;15.93;;
29006;SDS011;16104;48.642;9.008;2022-08-19T08:41:03;20.88;;;17.17;;
29006;SDS011;16104;48.642;9.008;2022-08-19T08:46:27;18.67;;;15.65;;
29006;SDS011;16104;48.642;9.008;2022-08-19T08:51:41;18.23;;;15.70;;
29006;SDS011;16104;48.642;9.008;2022-08-19T08:56:42;19.95;;;15.27;;
29006;SDS011;16104;48.642;9.008;2022-08-19T09:01:39;19.98;;;16.75;;
29006;SDS011;16104;48.642;9.008;2022-08-19T09:06:37;18.20;;;16.25;;
29006;SDS011;16104;48.642;9.008;2022-08-19T09:11:50;19.55;;;15.57;;
29006;SDS011;16104;48.642;9.008;2022-08-19T09:16:49;18.67;;;16.13;;
29006;SDS011;16104;48.642;9.008;2022-08-19T09:21:46;26.98;;;16.00;;
29006;SDS011;16104;48.642;9.008;2022-08-19T09:26:42;19.52;;;15.43;;
29006;SDS011;16104;48.642;9.008;2022-08-19T09:31:38;19.08;;;15.15;;
29006;SDS011;16104;48.642;9.008;2022-08-19T09:36:34;15.75;;;13.82;;
29006;SDS011;16104;48.642;9.008;2022-08-19T09:46:29;15.43;;;13.35;;
29006;SDS011;16104;48.642;9.008;2022-08-19T09:51:26;15.95;;;14.27;;
29006;SDS011;16104;48.642;9.008;2022-08-19T09:56:23;16.70;;;14.68;;
29006;SDS011;16104;48.642;9.008;2022-08-19T10:01:19;23.27;;;14.52;;
29006;SDS011;16104;48.642;9.008;2022-08-19T10:06:18;16.67;;;14.38;;
29006;SDS011;16104;48.642;9.008;2022-08-19T10:11:15;20.70;;;14.38;;
29006;SDS011;16104;48.642;9.008;2022-08-19T10:16:16;17.92;;;13.50;;
29006;SDS011;16104;48.642;9.008;2022-08-19T10:21:16;15.63;;;14.00;;
29006;SDS011;16104;48.642;9.008;2022-08-19T10:26:16;17.17;;;13.77;;
29006;SDS011;16104;48.642;9.008;2022-08-19T10:31:15;13.50;;;12.20;;
29006;SDS011;16104;48.642;9.008;2022-08-19T10:36:14;16.97;;;12.97;;
29006;SDS011;16104;48.642;9.008;2022-08-19T10:41:24;14.20;;;11.30;;
29006;SDS011;16104;48.642;9.008;2022-08-19T10:46:23;12.27;;;11.02;;
29006;SDS011;16104;48.642;9.008;2022-08-19T10:51:20;12.23;;;10.98;;
29006;SDS011;16104;48.642;9.008;2022-08-19T10:56:35;11.18;;;9.95;;
29006;SDS011;16104;48.642;9.008;2022-08-19T11:01:46;10.60;;;9.10;;
29006;SDS011;16104;48.642;9.008;2022-08-19T11:06:45;12.20;;;9.43;;
29006;SDS011;16104;48.642;9.008;2022-08-19T11:11:42;13.38;;;9.32;;
29006;SDS011;16104;48.642;9.008;2022-08-19T11:16:39;9.50;;;8.40;;
29006;SDS011;16104;48.642;9.008;2022-08-19T11:21:37;12.85;;;10.30;;
29006;SDS011;16104;48.642;9.008;2022-08-19T11:26:35;12.35;;;10.30;;
29006;SDS011;16104;48.642;9.008;2022-08-19T11:31:33;11.98;;;10.27;;
29006;SDS011;16104;48.642;9.008;2022-08-19T11:36:34;11.95;;;9.70;;
29006;SDS011;16104;48.642;9.008;2022-08-19T11:41:33;11.30;;;9.15;;
29006;SDS011;16104;48.642;9.008;2022-08-19T11:46:29;11.35;;;9.55;;
29006;SDS011;16104;48.642;9.008;2022-08-19T11:51:26;10.25;;;8.55;;
29006;SDS011;16104;48.642;9.008;2022-08-19T11:56:23;8.93;;;8.13;;
29006;SDS011;16104;48.642;9.008;2022-08-19T12:01:21;10.02;;;8.75;;
29006;SDS011;16104;48.642;9.008;2022-08-19T12:06:18;9.90;;;8.25;;
29006;SDS011;16104;48.642;9.008;2022-08-19T12:11:20;10.18;;;8.80;;
29006;SDS011;16104;48.642;9.008;2022-08-19T12:16:17;9.48;;;8.48;;
29006;SDS011;16104;48.642;9.008;2022-08-19T12:21:16;8.05;;;7.25;;
29006;SDS011;16104;48.642;9.008;2022-08-19T12:26:16;7.95;;;7.20;;
29006;SDS011;16104;48.642;9.008;2022-08-19T12:31:12;8.98;;;8.07;;
29006;SDS011;16104;48.642;9.008;2022-08-19T12:36:10;10.70;;;7.45;;
29006;SDS011;16104;48.642;9.008;2022-08-19T12:41:09;7.45;;;6.75;;
29006;SDS011;16104;48.642;9.008;2022-08-19T12:46:07;8.23;;;6.72;;
29006;SDS011;16104;48.642;9.008;2022-08-19T12:51:07;7.93;;;6.95;;
29006;SDS011;16104;48.642;9.008;2022-08-19T12:56:05;7.53;;;5.60;;
29006;SDS011;16104;48.642;9.008;2022-08-19T13:01:12;15.55;;;6.75;;
29006;SDS011;16104;48.642;9.008;2022-08-19T13:06:09;15.00;;;6.00;;
29006;SDS011;16104;48.642;9.008;2022-08-19T13:11:09;6.15;;;5.65;;
29006;SDS011;16104;48.642;9.008;2022-08-19T13:16:09;7.35;;;5.75;;
29006;SDS011;16104;48.642;9.008;2022-08-19T13:44:03;7.72;;;5.50;;
29006;SDS011;16104;48.642;9.008;2022-08-19T13:49:01;6.45;;;5.80;;
29006;SDS011;16104;48.642;9.008;2022-08-19T13:53:56;7.03;;;6.32;;
29006;SDS011;16104;48.642;9.008;2022-08-19T13:58:52;7.57;;;6.88;;
29006;SDS011;16104;48.642;9.008;2022-08-19T14:03:48;7.38;;;6.47;;
29006;SDS011;16104;48.642;9.008;2022-08-19T14:08:44;7.00;;;6.40;;
29006;SDS011;16104;48.642;9.008;2022-08-19T14:13:41;7.57;;;6.88;;
29006;SDS011;16104;48.642;9.008;2022-08-19T14:18:36;7.32;;;6.63;;
29006;SDS011;16104;48.642;9.008;2022-08-19T14:23:33;8.55;;;6.95;;
29006;SDS011;16104;48.642;9.008;2022-08-19T14:28:30;9.32;;;6.60;;
29006;SDS011;16104;48.642;9.008;2022-08-19T14:33:26;7.30;;;6.65;;
29006;SDS011;16104;48.642;9.008;2022-08-19T14:38:22;7.45;;;6.70;;
29006;SDS011;16104;48.642;9.008;2022-08-19T14:43:17;6.78;;;6.18;;
29006;SDS011;16104;48.642;9.008;2022-08-19T14:48:13;7.60;;;6.43;;
29006;SDS011;16104;48.642;9.008;2022-08-19T14:53:08;6.78;;;6.07;;
29006;SDS011;16104;48.642;9.008;2022-08-19T14:58:04;7.07;;;6.45;;
29006;SDS011;16104;48.642;9.008;2022-08-19T15:03:00;7.20;;;6.60;;
29006;SDS011;16104;48.642;9.008;2022-08-19T15:07:55;6.70;;;6.13;;
29006;SDS011;16104;48.642;9.008;2022-08-19T15:12:51;6.50;;;5.90;;
29006;SDS011;16104;48.642;9.008;2022-08-19T15:17:48;6.50;;;5.90;;
29006;SDS011;16104;48.642;9.008;2022-08-19T15:22:44;7.05;;;6.45;;
29006;SDS011;16104;48.642;9.008;2022-08-19T15:27:40;6.75;;;6.13;;
29006;SDS011;16104;48.642;9.008;2022-08-19T15:32:36;6.65;;;6.03;;
29006;SDS011;16104;48.642;9.008;2022-08-19T15:37:32;6.57;;;5.97;;
29006;SDS011;16104;48.642;9.008;2022-08-19T15:42:28;6.20;;;5.70;;
29006;SDS011;16104;48.642;9.008;2022-08-19T15:47:24;6.70;;;6.10;;
29006;SDS011;16104;48.642;9.008;2022-08-19T15:52:19;6.45;;;5.78;;
29006;SDS011;16104;48.642;9.008;2022-08-19T15:57:15;9.73;;;6.32;;
29006;SDS011;16104;48.642;9.008;2022-08-19T16:02:17;6.07;;;5.53;;
29006;SDS011;16104;48.642;9.008;2022-08-19T16:07:32;6.40;;;5.88;;
29006;SDS011;16104;48.642;9.008;2022-08-19T16:12:28;6.82;;;5.85;;
29006;SDS011;16104;48.642;9.008;2022-08-19T16:17:24;6.30;;;5.70;;
29006;SDS011;16104;48.642;9.008;2022-08-19T16:22:20;7.45;;;5.90;;
29006;SDS011;16104;48.642;9.008;2022-08-19T16:27:16;5.80;;;5.30;;
29006;SDS011;16104;48.642;9.008;2022-08-19T16:32:11;6.68;;;5.60;;
29006;SDS011;16104;48.642;9.008;2022-08-19T16:37:08;6.75;;;5.70;;
29006;SDS011;16104;48.642;9.008;2022-08-19T16:42:04;5.68;;;5.18;;
29006;SDS011;16104;48.642;9.008;2022-08-19T16:47:02;5.90;;;5.40;;
29006;SDS011;16104;48.642;9.008;2022-08-19T16:51:57;5.68;;;5.25;;
29006;SDS011;16104;48.642;9.008;2022-08-19T16:56:53;6.00;;;5.40;;
29006;SDS011;16104;48.642;9.008;2022-08-19T17:01:49;6.53;;;5.53;;
29006;SDS011;16104;48.642;9.008;2022-08-19T17:06:46;6.03;;;5.47;;
29006;SDS011;16104;48.642;9.008;2022-08-19T17:11:41;11.50;;;4.90;;
29006;SDS011;16104;48.642;9.008;2022-08-19T17:16:37;5.13;;;4.72;;
29006;SDS011;16104;48.642;9.008;2022-08-19T17:21:34;5.60;;;5.10;;
29006;SDS011;16104;48.642;9.008;2022-08-19T17:26:31;5.25;;;4.75;;
29006;SDS011;16104;48.642;9.008;2022-08-19T17:31:27;5.53;;;5.03;;
29006;SDS011;16104;48.642;9.008;2022-08-19T17:36:25;4.75;;;4.30;;
29006;SDS011;16104;48.642;9.008;2022-08-19T17:41:23;5.38;;;4.57;;
29006;SDS011;16104;48.642;9.008;2022-08-19T17:46:20;5.20;;;4.70;;
29006;SDS011;16104;48.642;9.008;2022-08-19T17:51:17;12.60;;;5.13;;
29006;SDS011;16104;48.642;9.008;2022-08-19T17:56:18;12.90;;;5.75;;
29006;SDS011;16104;48.642;9.008;2022-08-19T18:01:15;13.50;;;5.53;;
29006;SDS011;16104;48.642;9.008;2022-08-19T18:06:12;6.85;;;5.40;;
29006;SDS011;16104;48.642;9.008;2022-08-19T18:11:09;6.93;;;4.93;;
29006;SDS011;16104;48.642;9.008;2022-08-19T18:16:05;25.75;;;5.25;;
29006;SDS011;16104;48.642;9.008;2022-08-19T18:21:06;22.65;;;5.57;;
29006;SDS011;16104;48.642;9.008;2022-08-19T18:26:03;20.92;;;5.35;;
29006;SDS011;16104;48.642;9.008;2022-08-19T18:30:58;17.60;;;6.70;;
29006;SDS011;16104;48.642;9.008;2022-08-19T18:35:56;9.25;;;7.18;;
29006;SDS011;16104;48.642;9.008;2022-08-19T18:40:57;16.65;;;4.90;;
29006;SDS011;16104;48.642;9.008;2022-08-19T18:46:12;6.80;;;5.95;;
29006;SDS011;16104;48.642;9.008;2022-08-19T18:51:26;6.68;;;6.07;;
29006;SDS011;16104;48.642;9.008;2022-08-19T18:56:26;6.95;;;6.35;;
29006;SDS011;16104;48.642;9.008;2022-08-19T19:01:32;7.22;;;6.35;;
29006;SDS011;16104;48.642;9.008;2022-08-19T19:06:32;7.15;;;6.45;;
29006;SDS011;16104;48.642;9.008;2022-08-19T19:11:33;10.23;;;6.20;;
29006;SDS011;16104;48.642;9.008;2022-08-19T19:16:31;15.68;;;6.45;;
29006;SDS011;16104;48.642;9.008;2022-08-19T19:21:27;8.73;;;5.90;;
29006;SDS011;16104;48.642;9.008;2022-08-19T19:26:22;22.08;;;6.72;;
29006;SDS011;16104;48.642;9.008;2022-08-19T19:31:19;6.55;;;5.82;;
29006;SDS011;16104;48.642;9.008;2022-08-19T19:36:20;20.13;;;5.68;;
29006;SDS011;16104;48.642;9.008;2022-08-19T19:41:18;6.18;;;5.30;;
29006;SDS011;16104;48.642;9.008;2022-08-19T19:46:18;12.40;;;5.63;;
29006;SDS011;16104;48.642;9.008;2022-08-19T19:51:13;16.63;;;5.50;;
29006;SDS011;16104;48.642;9.008;2022-08-19T19:56:09;18.48;;;4.72;;
29006;SDS011;16104;48.642;9.008;2022-08-19T20:01:05;8.07;;;5.20;;
29006;SDS011;16104;48.642;9.008;2022-08-19T20:06:01;6.88;;;5.22;;
29006;SDS011;16104;48.642;9.008;2022-08-19T20:10:59;7.43;;;5.15;;
29006;SDS011;16104;48.642;9.008;2022-08-19T20:15:56;6.10;;;5.50;;
29006;SDS011;16104;48.642;9.008;2022-08-19T20:20:52;6.40;;;5.00;;
29006;SDS011;16104;48.642;9.008;2022-08-19T20:25:48;5.05;;;4.57;;
29006;SDS011;16104;48.642;9.008;2022-08-19T20:30:46;4.63;;;4.22;;
29006;SDS011;16104;48.642;9.008;2022-08-19T20:35:42;6.13;;;3.67;;
29006;SDS011;16104;48.642;9.008;2022-08-19T20:40:39;3.95;;;3.40;;
29006;SDS011;16104;48.642;9.008;2022-08-19T20:45:35;3.30;;;3.10;;
29006;SDS011;16104;48.642;9.008;2022-08-19T20:50:31;3.17;;;2.88;;
29006;SDS011;16104;48.642;9.008;2022-08-19T20:55:29;4.80;;;2.80;;
29006;SDS011;16104;48.642;9.008;2022-08-19T21:00:24;2.80;;;2.60;;
29006;SDS011;16104;48.642;9.008;2022-08-19T21:05:20;3.15;;;2.95;;
29006;SDS011;16104;48.642;9.008;2022-08-19T21:10:15;4.60;;;2.67;;
29006;SDS011;16104;48.642;9.008;2022-08-19T21:15:11;2.72;;;2.53;;
29006;SDS011;16104;48.642;9.008;2022-08-19T21:20:07;2.65;;;2.30;;
29006;SDS011;16104;48.642;9.008;2022-08-19T21:25:04;2.67;;;2.47;;
29006;SDS011;16104;48.642;9.008;2022-08-19T21:30:00;2.88;;;2.38;;
29006;SDS011;16104;48.642;9.008;2022-08-19T21:34:56;2.47;;;2.20;;
29006;SDS011;16104;48.642;9.008;2022-08-19T21:39:52;2.70;;;2.30;;
29006;SDS011;16104;48.642;9.008;2022-08-19T21:44:48;2.97;;;2.20;;
29006;SDS011;16104;48.642;9.008;2022-08-19T21:49:43;2.40;;;2.20;;
29006;SDS011;16104;48.642;9.008;2022-08-19T21:54:39;2.95;;;2.00;;
29006;SDS011;16104;48.642;9.008;2022-08-19T21:59:36;2.15;;;1.75;;
29006;SDS011;16104;48.642;9.008;2022-08-19T22:04:33;1.58;;;1.48;;
29006;SDS011;16104;48.642;9.008;2022-08-19T22:09:29;2.15;;;1.50;;
29006;SDS011;16104;48.642;9.008;2022-08-19T22:14:24;5.35;;;1.50;;
29006;SDS011;16104;48.642;9.008;2022-08-19T22:19:20;1.50;;;1.40;;
29006;SDS011;16104;48.642;9.008;2022-08-19T22:24:15;2.22;;;1.08;;
29006;SDS011;16104;48.642;9.008;2022-08-19T22:29:11;1.27;;;0.98;;
29006;SDS011;16104;48.642;9.008;2022-08-19T22:34:07;1.30;;;1.20;;
29006;SDS011;16104;48.642;9.008;2022-08-19T22:39:03;1.08;;;1.00;;
29006;SDS011;16104;48.642;9.008;2022-08-19T22:43:59;1.00;;;1.00;;
29006;SDS011;16104;48.642;9.008;2022-08-19T22:48:54;1.90;;;1.20;;
29006;SDS011;16104;48.642;9.008;2022-08-19T22:53:50;1.13;;;0.90;;
29006;SDS011;16104;48.642;9.008;2022-08-19T22:58:46;1.25;;;0.95;;
29006;SDS011;16104;48.642;9.008;2022-08-19T23:03:42;1.10;;;0.98;;
29006;SDS011;16104;48.642;9.008;2022-08-19T23:08:37;4.85;;;1.15;;
29006;SDS011;16104;48.642;9.008;2022-08-19T23:13:34;1.27;;;1.17;;
29006;SDS011;16104;48.642;9.008;2022-08-19T23:18:30;1.83;;;1.30;;
29006;SDS011;16104;48.642;9.008;2022-08-19T23:23:27;0.77;;;0.77;;
29006;SDS011;16104;48.642;9.008;2022-08-19T23:28:23;1.40;;;1.30;;
29006;SDS011;16104;48.642;9.008;2022-08-19T23:33:38;1.10;;;1.00;;
29006;SDS011;16104;48.642;9.008;2022-08-19T23:38:36;0.90;;;0.90;;
29006;SDS011;16104;48.642;9.008;2022-08-19T23:43:33;1.13;;;1.00;;
29006;SDS011;16104;48.642;9.008;2022-08-19T23:48:30;1.10;;;0.93;;
29006;SDS011;16104;48.642;9.008;2022-08-19T23:53:27;2.55;;;1.05;;
29006;SDS011;16104;48.642;9.008;2022-08-19T23:58:23;0.93;;;0.77;;
